sensor_id;sensor_type;location;lat;lon;timestamp;pressure;altitude;pressure_sealevel;temperature;humidity
3444;BME280;1736;52.068;6.968;2023-12-20T00:02:01;101568.78;;;6.12;100.00
3444;BME280;1736;52.068;6.968;2023-12-20T00:04:28;101556.16;;;6.02;100.00
3444;BME280;1736;52.068;6.968;2023-12-20T00:06:55;101557.50;;;5.93;100.00
3444;BME280;1736;52.068;6.968;2023-12-20T00:09:21;101560.91;;;5.95;100.00
3444;BME280;1736;52.068;6.968;2023-12-20T00:11:48;101570.06;;;5.88;100.00
3444;BME280;1736;52.068;6.968;2023-12-20T00:14:16;101578.88;;;5.87;100.00
3444;BME280;1736;52.068;6.968;2023-12-20T00:16:42;101588.97;;;5.96;100.00
3444;BME280;1736;52.068;6.968;2023-12-20T00:19:09;101589.13;;;5.93;100.00
3444;BME280;1736;52.068;6.968;2023-12-20T00:21:36;101584.59;;;5.95;100.00
3444;BME280;1736;52.068;6.968;2023-12-20T00:24:03;101581.84;;;5.98;100.00
3444;BME280;1736;52.068;6.968;2023-12-20T00:26:29;101578.78;;;6.06;100.00
3444;BME280;1736;52.068;6.968;2023-12-20T00:28:56;101586.16;;;5.99;100.00
3444;BME280;1736;52.068;6.968;2023-12-20T00:31:24;101586.50;;;5.93;100.00
3444;BME280;1736;52.068;6.968;2023-12-20T00:33:50;101576.88;;;5.92;100.00
3444;BME280;1736;52.068;6.968;2023-12-20T00:36:17;101568.19;;;5.90;100.00
3444;BME280;1736;52.068;6.968;2023-12-20T00:38:43;101572.06;;;5.83;100.00
3444;BME280;1736;52.068;6.968;2023-12-20T00:41:10;101570.44;;;5.81;100.00
3444;BME280;1736;52.068;6.968;2023-12-20T00:43:36;101567.38;;;5.71;100.00
3444;BME280;1736;52.068;6.968;2023-12-20T00:46:03;101559.16;;;5.60;100.00
3444;BME280;1736;52.068;6.968;2023-12-20T00:48:31;101568.28;;;5.53;100.00
3444;BME280;1736;52.068;6.968;2023-12-20T00:50:58;101570.13;;;5.51;100.00
3444;BME280;1736;52.068;6.968;2023-12-20T00:53:24;101560.91;;;5.42;100.00
3444;BME280;1736;52.068;6.968;2023-12-20T00:55:51;101565.50;;;5.39;100.00
3444;BME280;1736;52.068;6.968;2023-12-20T00:58:17;101556.78;;;5.37;100.00
3444;BME280;1736;52.068;6.968;2023-12-20T01:00:44;101564.56;;;5.40;100.00
3444;BME280;1736;52.068;6.968;2023-12-20T01:03:10;101566.72;;;5.49;100.00
3444;BME280;1736;52.068;6.968;2023-12-20T01:05:38;101562.34;;;5.49;100.00
3444;BME280;1736;52.068;6.968;2023-12-20T01:08:06;101564.50;;;5.58;100.00
3444;BME280;1736;52.068;6.968;2023-12-20T01:10:32;101566.41;;;5.55;100.00
3444;BME280;1736;52.068;6.968;2023-12-20T01:12:59;101564.84;;;5.51;100.00
3444;BME280;1736;52.068;6.968;2023-12-20T01:15:25;101565.88;;;5.48;100.00
3444;BME280;1736;52.068;6.968;2023-12-20T01:17:52;101565.31;;;5.42;100.00
3444;BME280;1736;52.068;6.968;2023-12-20T01:20:18;101549.25;;;5.48;100.00
3444;BME280;1736;52.068;6.968;2023-12-20T01:22:47;101542.88;;;5.35;100.00
3444;BME280;1736;52.068;6.968;2023-12-20T01:25:14;101544.44;;;5.39;100.00
3444;BME280;1736;52.068;6.968;2023-12-20T01:27:40;101540.25;;;5.35;100.00
3444;BME280;1736;52.068;6.968;2023-12-20T01:30:07;101530.94;;;5.28;100.00
3444;BME280;1736;52.068;6.968;2023-12-20T01:32:34;101538.91;;;5.26;100.00
3444;BME280;1736;52.068;6.968;2023-12-20T01:35:01;101530.31;;;5.23;100.00
3444;BME280;1736;52.068;6.968;2023-12-20T01:37:28;101526.41;;;5.13;100.00
3444;BME280;1736;52.068;6.968;2023-12-20T01:39:56;101534.78;;;5.21;100.00
3444;BME280;1736;52.068;6.968;2023-12-20T01:42:24;101534.28;;;5.13;100.00
3444;BME280;1736;52.068;6.968;2023-12-20T01:44:50;101529.28;;;5.08;100.00
3444;BME280;1736;52.068;6.968;2023-12-20T01:47:17;101525.84;;;5.06;100.00
3444;BME280;1736;52.068;6.968;2023-12-20T01:49:44;101526.97;;;5.01;100.00
3444;BME280;1736;52.068;6.968;2023-12-20T01:52:10;101522.78;;;4.97;100.00
3444;BME280;1736;52.068;6.968;2023-12-20T01:54:37;101516.47;;;5.01;100.00
3444;BME280;1736;52.068;6.968;2023-12-20T01:57:06;101520.03;;;5.00;100.00
3444;BME280;1736;52.068;6.968;2023-12-20T01:59:34;101511.34;;;4.98;100.00
3444;BME280;1736;52.068;6.968;2023-12-20T02:02:02;101509.78;;;4.94;100.00
3444;BME280;1736;52.068;6.968;2023-12-20T02:04:29;101528.44;;;4.89;100.00
3444;BME280;1736;52.068;6.968;2023-12-20T02:06:57;101524.78;;;4.92;100.00
3444;BME280;1736;52.068;6.968;2023-12-20T02:09:25;101514.47;;;4.87;100.00
3444;BME280;1736;52.068;6.968;2023-12-20T02:11:53;101508.38;;;4.87;100.00
3444;BME280;1736;52.068;6.968;2023-12-20T02:14:21;101520.53;;;4.89;100.00
3444;BME280;1736;52.068;6.968;2023-12-20T02:16:48;101518.25;;;4.82;100.00
3444;BME280;1736;52.068;6.968;2023-12-20T02:19:15;101513.41;;;4.73;100.00
3444;BME280;1736;52.068;6.968;2023-12-20T02:21:45;101515.00;;;4.77;100.00
3444;BME280;1736;52.068;6.968;2023-12-20T02:24:11;101519.63;;;4.72;100.00
3444;BME280;1736;52.068;6.968;2023-12-20T02:26:38;101520.59;;;4.69;100.00
3444;BME280;1736;52.068;6.968;2023-12-20T02:29:05;101513.91;;;4.81;100.00
3444;BME280;1736;52.068;6.968;2023-12-20T02:31:31;101515.34;;;4.88;100.00
3444;BME280;1736;52.068;6.968;2023-12-20T02:33:58;101498.97;;;5.00;100.00
3444;BME280;1736;52.068;6.968;2023-12-20T02:36:24;101503.94;;;5.06;100.00
3444;BME280;1736;52.068;6.968;2023-12-20T02:38:52;101519.44;;;5.12;100.00
3444;BME280;1736;52.068;6.968;2023-12-20T02:41:19;101510.75;;;5.10;100.00
3444;BME280;1736;52.068;6.968;2023-12-20T02:43:45;101516.41;;;5.02;100.00
3444;BME280;1736;52.068;6.968;2023-12-20T02:46:13;101503.94;;;5.06;100.00
3444;BME280;1736;52.068;6.968;2023-12-20T02:48:41;101508.91;;;5.12;100.00
3444;BME280;1736;52.068;6.968;2023-12-20T02:51:08;101503.34;;;5.18;100.00
3444;BME280;1736;52.068;6.968;2023-12-20T02:53:34;101484.44;;;5.10;100.00
3444;BME280;1736;52.068;6.968;2023-12-20T02:56:03;101488.63;;;5.14;100.00
3444;BME280;1736;52.068;6.968;2023-12-20T02:58:30;101483.88;;;5.03;100.00
3444;BME280;1736;52.068;6.968;2023-12-20T03:00:56;101483.75;;;5.06;100.00
3444;BME280;1736;52.068;6.968;2023-12-20T03:03:23;101486.00;;;5.14;100.00
3444;BME280;1736;52.068;6.968;2023-12-20T03:05:49;101489.09;;;5.05;100.00
3444;BME280;1736;52.068;6.968;2023-12-20T03:08:16;101484.75;;;5.04;100.00
3444;BME280;1736;52.068;6.968;2023-12-20T03:10:42;101478.50;;;5.06;100.00
3444;BME280;1736;52.068;6.968;2023-12-20T03:13:10;101472.22;;;5.09;100.00
3444;BME280;1736;52.068;6.968;2023-12-20T03:15:37;101470.81;;;5.02;100.00
3444;BME280;1736;52.068;6.968;2023-12-20T03:18:03;101460.94;;;5.07;100.00
3444;BME280;1736;52.068;6.968;2023-12-20T03:20:30;101454.88;;;5.05;100.00
3444;BME280;1736;52.068;6.968;2023-12-20T03:22:59;101458.78;;;5.15;100.00
3444;BME280;1736;52.068;6.968;2023-12-20T03:25:25;101448.41;;;5.12;100.00
3444;BME280;1736;52.068;6.968;2023-12-20T03:27:52;101440.59;;;5.10;100.00
3444;BME280;1736;52.068;6.968;2023-12-20T03:30:20;101450.25;;;5.10;100.00
3444;BME280;1736;52.068;6.968;2023-12-20T03:32:47;101432.63;;;5.12;100.00
3444;BME280;1736;52.068;6.968;2023-12-20T03:35:14;101435.41;;;5.09;100.00
3444;BME280;1736;52.068;6.968;2023-12-20T03:37:40;101425.72;;;5.09;100.00
3444;BME280;1736;52.068;6.968;2023-12-20T03:40:07;101429.84;;;5.15;100.00
3444;BME280;1736;52.068;6.968;2023-12-20T03:42:34;101432.91;;;5.06;100.00
3444;BME280;1736;52.068;6.968;2023-12-20T03:45:00;101430.13;;;5.09;100.00
3444;BME280;1736;52.068;6.968;2023-12-20T03:47:28;101433.38;;;5.14;100.00
3444;BME280;1736;52.068;6.968;2023-12-20T03:49:55;101421.94;;;5.15;100.00
3444;BME280;1736;52.068;6.968;2023-12-20T03:52:21;101423.66;;;5.16;100.00
3444;BME280;1736;52.068;6.968;2023-12-20T03:54:48;101422.56;;;5.20;100.00
3444;BME280;1736;52.068;6.968;2023-12-20T03:57:14;101417.25;;;5.21;100.00
3444;BME280;1736;52.068;6.968;2023-12-20T03:59:41;101412.97;;;5.19;100.00
3444;BME280;1736;52.068;6.968;2023-12-20T04:02:07;101416.28;;;5.22;100.00
3444;BME280;1736;52.068;6.968;2023-12-20T04:04:35;101415.91;;;5.13;100.00
3444;BME280;1736;52.068;6.968;2023-12-20T04:07:02;101403.91;;;5.07;100.00
3444;BME280;1736;52.068;6.968;2023-12-20T04:09:28;101410.97;;;5.07;100.00
3444;BME280;1736;52.068;6.968;2023-12-20T04:11:55;101397.94;;;5.04;100.00
3444;BME280;1736;52.068;6.968;2023-12-20T04:14:21;101403.22;;;5.04;100.00
3444;BME280;1736;52.068;6.968;2023-12-20T04:16:48;101403.97;;;5.06;100.00
3444;BME280;1736;52.068;6.968;2023-12-20T04:19:14;101404.69;;;5.09;100.00
3444;BME280;1736;52.068;6.968;2023-12-20T04:21:42;101422.84;;;5.14;100.00
3444;BME280;1736;52.068;6.968;2023-12-20T04:24:09;101422.78;;;5.15;100.00
3444;BME280;1736;52.068;6.968;2023-12-20T04:26:36;101431.06;;;5.25;100.00
3444;BME280;1736;52.068;6.968;2023-12-20T04:29:02;101415.06;;;5.29;100.00
3444;BME280;1736;52.068;6.968;2023-12-20T04:31:29;101415.84;;;5.31;100.00
3444;BME280;1736;52.068;6.968;2023-12-20T04:33:55;101421.81;;;5.35;100.00
3444;BME280;1736;52.068;6.968;2023-12-20T04:36:22;101413.72;;;5.38;100.00
3444;BME280;1736;52.068;6.968;2023-12-20T04:38:51;101416.06;;;5.44;100.00
3444;BME280;1736;52.068;6.968;2023-12-20T04:41:18;101412.56;;;5.43;100.00
3444;BME280;1736;52.068;6.968;2023-12-20T04:43:44;101409.13;;;5.43;100.00
3444;BME280;1736;52.068;6.968;2023-12-20T04:46:11;101389.75;;;5.44;100.00
3444;BME280;1736;52.068;6.968;2023-12-20T04:48:37;101397.88;;;5.39;100.00
3444;BME280;1736;52.068;6.968;2023-12-20T04:51:04;101391.13;;;5.34;100.00
3444;BME280;1736;52.068;6.968;2023-12-20T04:53:31;101384.31;;;5.30;100.00
3444;BME280;1736;52.068;6.968;2023-12-20T04:55:59;101411.91;;;5.23;100.00
3444;BME280;1736;52.068;6.968;2023-12-20T04:58:25;101397.66;;;5.27;100.00
3444;BME280;1736;52.068;6.968;2023-12-20T05:00:52;101391.22;;;5.32;100.00
3444;BME280;1736;52.068;6.968;2023-12-20T05:03:18;101401.06;;;5.29;100.00
3444;BME280;1736;52.068;6.968;2023-12-20T05:05:45;101393.09;;;5.30;100.00
3444;BME280;1736;52.068;6.968;2023-12-20T05:08:12;101385.03;;;5.33;100.00
3444;BME280;1736;52.068;6.968;2023-12-20T05:10:38;101393.75;;;5.34;100.00
3444;BME280;1736;52.068;6.968;2023-12-20T05:13:06;101395.78;;;5.29;100.00
3444;BME280;1736;52.068;6.968;2023-12-20T05:15:34;101388.34;;;5.37;100.00
3444;BME280;1736;52.068;6.968;2023-12-20T05:18:00;101388.81;;;5.28;100.00
3444;BME280;1736;52.068;6.968;2023-12-20T05:20:27;101390.31;;;5.33;100.00
3444;BME280;1736;52.068;6.968;2023-12-20T05:22:53;101393.31;;;5.43;100.00
3444;BME280;1736;52.068;6.968;2023-12-20T05:25:20;101383.09;;;5.37;100.00
3444;BME280;1736;52.068;6.968;2023-12-20T05:27:47;101388.06;;;5.43;100.00
3444;BME280;1736;52.068;6.968;2023-12-20T05:30:15;101390.06;;;5.38;100.00
3444;BME280;1736;52.068;6.968;2023-12-20T05:32:41;101375.28;;;5.35;100.00
3444;BME280;1736;52.068;6.968;2023-12-20T05:35:08;101383.78;;;5.40;100.00
3444;BME280;1736;52.068;6.968;2023-12-20T05:37:34;101377.69;;;5.40;100.00
3444;BME280;1736;52.068;6.968;2023-12-20T05:40:01;101384.00;;;5.53;100.00
3444;BME280;1736;52.068;6.968;2023-12-20T05:42:27;101379.03;;;5.47;100.00
3444;BME280;1736;52.068;6.968;2023-12-20T05:44:54;101380.91;;;5.45;100.00
3444;BME280;1736;52.068;6.968;2023-12-20T05:47:22;101382.47;;;5.49;100.00
3444;BME280;1736;52.068;6.968;2023-12-20T05:49:48;101384.31;;;5.47;100.00
3444;BME280;1736;52.068;6.968;2023-12-20T05:52:15;101381.59;;;5.48;100.00
3444;BME280;1736;52.068;6.968;2023-12-20T05:54:42;101380.84;;;5.46;100.00
3444;BME280;1736;52.068;6.968;2023-12-20T05:57:08;101381.66;;;5.47;100.00
3444;BME280;1736;52.068;6.968;2023-12-20T05:59:35;101390.13;;;5.53;100.00
3444;BME280;1736;52.068;6.968;2023-12-20T06:02:03;101347.91;;;5.55;100.00
3444;BME280;1736;52.068;6.968;2023-12-20T06:04:31;101368.06;;;5.56;100.00
3444;BME280;1736;52.068;6.968;2023-12-20T06:06:57;101380.69;;;5.49;100.00
3444;BME280;1736;52.068;6.968;2023-12-20T06:09:24;101374.22;;;5.55;100.00
3444;BME280;1736;52.068;6.968;2023-12-20T06:11:51;101356.66;;;5.55;100.00
3444;BME280;1736;52.068;6.968;2023-12-20T06:14:16;101369.34;;;5.64;100.00
3444;BME280;1736;52.068;6.968;2023-12-20T06:16:45;101362.31;;;5.65;100.00
3444;BME280;1736;52.068;6.968;2023-12-20T06:19:11;101357.34;;;5.59;100.00
3444;BME280;1736;52.068;6.968;2023-12-20T06:21:40;101358.81;;;5.64;100.00
3444;BME280;1736;52.068;6.968;2023-12-20T06:24:07;101367.50;;;5.67;100.00
3444;BME280;1736;52.068;6.968;2023-12-20T06:26:34;101379.03;;;5.81;100.00
3444;BME280;1736;52.068;6.968;2023-12-20T06:29:00;101370.38;;;5.78;100.00
3444;BME280;1736;52.068;6.968;2023-12-20T06:31:26;101371.97;;;5.82;100.00
3444;BME280;1736;52.068;6.968;2023-12-20T06:33:53;101365.91;;;5.80;100.00
3444;BME280;1736;52.068;6.968;2023-12-20T06:36:22;101361.66;;;5.77;100.00
3444;BME280;1736;52.068;6.968;2023-12-20T06:38:50;101358.09;;;5.78;100.00
3444;BME280;1736;52.068;6.968;2023-12-20T06:41:17;101356.22;;;5.80;100.00
3444;BME280;1736;52.068;6.968;2023-12-20T06:43:44;101348.41;;;5.79;100.00
3444;BME280;1736;52.068;6.968;2023-12-20T06:46:11;101341.28;;;5.81;100.00
3444;BME280;1736;52.068;6.968;2023-12-20T06:48:38;101331.97;;;5.91;100.00
3444;BME280;1736;52.068;6.968;2023-12-20T06:51:05;101334.69;;;5.89;100.00
3444;BME280;1736;52.068;6.968;2023-12-20T06:53:32;101326.00;;;5.87;100.00
3444;BME280;1736;52.068;6.968;2023-12-20T06:55:59;101315.16;;;5.93;100.00
3444;BME280;1736;52.068;6.968;2023-12-20T06:58:26;101306.81;;;5.85;100.00
3444;BME280;1736;52.068;6.968;2023-12-20T07:00:52;101313.03;;;5.84;100.00
3444;BME280;1736;52.068;6.968;2023-12-20T07:03:19;101309.28;;;5.88;100.00
3444;BME280;1736;52.068;6.968;2023-12-20T07:05:45;101303.09;;;5.89;100.00
3444;BME280;1736;52.068;6.968;2023-12-20T07:08:12;101297.13;;;5.86;100.00
3444;BME280;1736;52.068;6.968;2023-12-20T07:10:41;101293.56;;;5.87;100.00
3444;BME280;1736;52.068;6.968;2023-12-20T07:13:09;101301.03;;;5.94;100.00
3444;BME280;1736;52.068;6.968;2023-12-20T07:15:35;101288.81;;;5.93;100.00
3444;BME280;1736;52.068;6.968;2023-12-20T07:18:02;101294.91;;;5.94;100.00
3444;BME280;1736;52.068;6.968;2023-12-20T07:20:30;101289.84;;;5.91;100.00
3444;BME280;1736;52.068;6.968;2023-12-20T07:22:56;101289.66;;;5.94;100.00
3444;BME280;1736;52.068;6.968;2023-12-20T07:25:23;101280.63;;;5.98;100.00
3444;BME280;1736;52.068;6.968;2023-12-20T07:27:49;101291.19;;;5.98;100.00
3444;BME280;1736;52.068;6.968;2023-12-20T07:30:17;101286.59;;;6.01;100.00
3444;BME280;1736;52.068;6.968;2023-12-20T07:32:44;101288.31;;;6.02;100.00
3444;BME280;1736;52.068;6.968;2023-12-20T07:35:10;101277.19;;;5.97;100.00
3444;BME280;1736;52.068;6.968;2023-12-20T07:37:37;101281.84;;;6.08;100.00
3444;BME280;1736;52.068;6.968;2023-12-20T07:40:04;101284.41;;;6.09;100.00
3444;BME280;1736;52.068;6.968;2023-12-20T07:42:31;101281.19;;;6.04;100.00
3444;BME280;1736;52.068;6.968;2023-12-20T07:44:58;101274.19;;;6.03;100.00
3444;BME280;1736;52.068;6.968;2023-12-20T07:47:26;101278.94;;;6.12;100.00
3444;BME280;1736;52.068;6.968;2023-12-20T07:49:52;101275.38;;;6.13;100.00
3444;BME280;1736;52.068;6.968;2023-12-20T07:52:19;101275.19;;;6.16;100.00
3444;BME280;1736;52.068;6.968;2023-12-20T07:54:47;101263.81;;;6.16;100.00
3444;BME280;1736;52.068;6.968;2023-12-20T07:57:13;101267.97;;;6.20;100.00
3444;BME280;1736;52.068;6.968;2023-12-20T07:59:40;101260.75;;;6.23;100.00
3444;BME280;1736;52.068;6.968;2023-12-20T08:02:06;101264.41;;;6.21;100.00
3444;BME280;1736;52.068;6.968;2023-12-20T08:04:34;101259.50;;;6.15;100.00
3444;BME280;1736;52.068;6.968;2023-12-20T08:07:01;101259.22;;;6.19;100.00
3444;BME280;1736;52.068;6.968;2023-12-20T08:09:31;101263.75;;;6.17;100.00
3444;BME280;1736;52.068;6.968;2023-12-20T08:12:02;101253.69;;;6.24;100.00
3444;BME280;1736;52.068;6.968;2023-12-20T08:14:29;101255.47;;;6.23;100.00
3444;BME280;1736;52.068;6.968;2023-12-20T08:16:56;101260.91;;;6.20;100.00
3444;BME280;1736;52.068;6.968;2023-12-20T08:19:23;101258.53;;;6.31;100.00
3444;BME280;1736;52.068;6.968;2023-12-20T08:21:51;101263.53;;;6.36;100.00
3444;BME280;1736;52.068;6.968;2023-12-20T08:24:17;101262.97;;;6.31;100.00
3444;BME280;1736;52.068;6.968;2023-12-20T08:26:44;101254.94;;;6.32;100.00
3444;BME280;1736;52.068;6.968;2023-12-20T08:29:12;101259.31;;;6.33;100.00
3444;BME280;1736;52.068;6.968;2023-12-20T08:31:39;101246.28;;;6.30;100.00
3444;BME280;1736;52.068;6.968;2023-12-20T08:34:05;101256.28;;;6.39;100.00
3444;BME280;1736;52.068;6.968;2023-12-20T08:36:32;101254.44;;;6.41;100.00
3444;BME280;1736;52.068;6.968;2023-12-20T08:39:00;101253.50;;;6.42;100.00
3444;BME280;1736;52.068;6.968;2023-12-20T08:41:28;101231.06;;;6.35;100.00
3444;BME280;1736;52.068;6.968;2023-12-20T08:43:55;101235.03;;;6.42;100.00
3444;BME280;1736;52.068;6.968;2023-12-20T08:46:21;101248.97;;;6.44;100.00
3444;BME280;1736;52.068;6.968;2023-12-20T08:48:48;101242.88;;;6.44;100.00
3444;BME280;1736;52.068;6.968;2023-12-20T08:51:14;101239.53;;;6.40;100.00
3444;BME280;1736;52.068;6.968;2023-12-20T08:53:41;101240.81;;;6.49;100.00
3444;BME280;1736;52.068;6.968;2023-12-20T08:56:11;101233.94;;;6.46;100.00
3444;BME280;1736;52.068;6.968;2023-12-20T08:58:38;101227.38;;;6.53;100.00
3444;BME280;1736;52.068;6.968;2023-12-20T09:01:05;101227.84;;;6.60;100.00
3444;BME280;1736;52.068;6.968;2023-12-20T09:03:32;101217.81;;;6.51;100.00
3444;BME280;1736;52.068;6.968;2023-12-20T09:05:59;101205.59;;;6.50;100.00
3444;BME280;1736;52.068;6.968;2023-12-20T09:08:26;101199.28;;;6.52;100.00
3444;BME280;1736;52.068;6.968;2023-12-20T09:10:53;101209.09;;;6.64;100.00
3444;BME280;1736;52.068;6.968;2023-12-20T09:13:21;101209.09;;;6.64;100.00
3444;BME280;1736;52.068;6.968;2023-12-20T09:15:53;101198.56;;;6.64;100.00
3444;BME280;1736;52.068;6.968;2023-12-20T09:18:19;101187.75;;;6.69;100.00
3444;BME280;1736;52.068;6.968;2023-12-20T09:20:46;101189.81;;;6.64;100.00
3444;BME280;1736;52.068;6.968;2023-12-20T09:23:13;101189.34;;;6.57;100.00
3444;BME280;1736;52.068;6.968;2023-12-20T09:25:39;101170.00;;;6.57;100.00
3444;BME280;1736;52.068;6.968;2023-12-20T09:28:06;101186.88;;;6.54;100.00
3444;BME280;1736;52.068;6.968;2023-12-20T09:30:34;101203.13;;;6.47;100.00
3444;BME280;1736;52.068;6.968;2023-12-20T09:33:05;101212.53;;;6.51;100.00
3444;BME280;1736;52.068;6.968;2023-12-20T09:35:32;101218.19;;;6.45;100.00
3444;BME280;1736;52.068;6.968;2023-12-20T09:37:58;101216.59;;;6.42;100.00
3444;BME280;1736;52.068;6.968;2023-12-20T09:40:26;101223.72;;;6.40;100.00
3444;BME280;1736;52.068;6.968;2023-12-20T09:42:56;101228.66;;;6.46;100.00
3444;BME280;1736;52.068;6.968;2023-12-20T09:45:23;101234.25;;;6.40;100.00
3444;BME280;1736;52.068;6.968;2023-12-20T09:47:52;101237.25;;;6.34;100.00
3444;BME280;1736;52.068;6.968;2023-12-20T09:50:20;101246.28;;;6.30;100.00
3444;BME280;1736;52.068;6.968;2023-12-20T09:52:49;101251.06;;;6.24;100.00
3444;BME280;1736;52.068;6.968;2023-12-20T09:55:17;101272.97;;;6.24;100.00
3444;BME280;1736;52.068;6.968;2023-12-20T09:57:44;101276.56;;;6.23;100.00
3444;BME280;1736;52.068;6.968;2023-12-20T10:00:12;101267.91;;;6.21;100.00
3444;BME280;1736;52.068;6.968;2023-12-20T10:02:44;101289.66;;;6.25;100.00
3444;BME280;1736;52.068;6.968;2023-12-20T10:05:16;101293.16;;;6.25;100.00
3444;BME280;1736;52.068;6.968;2023-12-20T10:07:44;101292.19;;;6.26;100.00
3444;BME280;1736;52.068;6.968;2023-12-20T10:10:12;101278.69;;;6.17;100.00
3444;BME280;1736;52.068;6.968;2023-12-20T10:12:39;101292.19;;;6.26;100.00
3444;BME280;1736;52.068;6.968;2023-12-20T10:15:06;101310.56;;;6.28;100.00
3444;BME280;1736;52.068;6.968;2023-12-20T10:17:33;101310.41;;;6.31;100.00
3444;BME280;1736;52.068;6.968;2023-12-20T10:19:59;101312.44;;;6.41;100.00
3444;BME280;1736;52.068;6.968;2023-12-20T10:25:57;101331.38;;;6.32;100.00
3444;BME280;1736;52.068;6.968;2023-12-20T10:28:24;101330.47;;;6.33;100.00
3444;BME280;1736;52.068;6.968;2023-12-20T10:30:53;101329.28;;;6.39;100.00
3444;BME280;1736;52.068;6.968;2023-12-20T10:33:24;101327.22;;;6.44;100.00
3444;BME280;1736;52.068;6.968;2023-12-20T10:35:51;101335.97;;;6.44;100.00
3444;BME280;1736;52.068;6.968;2023-12-20T10:38:18;101339.28;;;6.48;100.00
3444;BME280;1736;52.068;6.968;2023-12-20T10:40:45;101324.72;;;6.56;100.00
3444;BME280;1736;52.068;6.968;2023-12-20T10:43:14;101332.84;;;6.53;100.00
3444;BME280;1736;52.068;6.968;2023-12-20T10:45:41;101311.75;;;6.53;100.00
3444;BME280;1736;52.068;6.968;2023-12-20T10:48:10;101317.19;;;6.50;100.00
3444;BME280;1736;52.068;6.968;2023-12-20T10:50:37;101316.16;;;6.53;100.00
3444;BME280;1736;52.068;6.968;2023-12-20T10:53:06;101314.97;;;6.58;100.00
3444;BME280;1736;52.068;6.968;2023-12-20T10:55:33;101315.69;;;6.60;100.00
3444;BME280;1736;52.068;6.968;2023-12-20T10:58:01;101313.94;;;6.61;100.00
3444;BME280;1736;52.068;6.968;2023-12-20T11:00:30;101319.94;;;6.63;100.00
3444;BME280;1736;52.068;6.968;2023-12-20T11:03:00;101307.78;;;6.60;100.00
3444;BME280;1736;52.068;6.968;2023-12-20T11:05:36;101307.72;;;6.62;100.00
3444;BME280;1736;52.068;6.968;2023-12-20T11:08:08;101296.91;;;6.66;100.00
3444;BME280;1736;52.068;6.968;2023-12-20T11:10:39;101303.69;;;6.70;100.00
3444;BME280;1736;52.068;6.968;2023-12-20T11:13:17;101297.03;;;6.79;100.00
3444;BME280;1736;52.068;6.968;2023-12-20T11:15:47;101289.59;;;6.85;100.00
3444;BME280;1736;52.068;6.968;2023-12-20T11:18:14;101284.38;;;6.99;100.00
3444;BME280;1736;52.068;6.968;2023-12-20T11:20:41;101267.59;;;7.00;100.00
3444;BME280;1736;52.068;6.968;2023-12-20T11:23:09;101257.34;;;6.96;100.00
3444;BME280;1736;52.068;6.968;2023-12-20T11:25:49;101221.03;;;6.99;100.00
3444;BME280;1736;52.068;6.968;2023-12-20T11:28:21;101231.03;;;6.94;100.00
3444;BME280;1736;52.068;6.968;2023-12-20T11:30:50;101229.91;;;6.98;100.00
3444;BME280;1736;52.068;6.968;2023-12-20T11:33:21;101247.03;;;7.05;100.00
3444;BME280;1736;52.068;6.968;2023-12-20T11:35:48;101234.81;;;7.04;100.00
3444;BME280;1736;52.068;6.968;2023-12-20T11:38:15;101232.44;;;7.28;100.00
3444;BME280;1736;52.068;6.968;2023-12-20T11:40:42;101235.47;;;7.36;100.00
3444;BME280;1736;52.068;6.968;2023-12-20T11:43:09;101221.13;;;7.54;100.00
3444;BME280;1736;52.068;6.968;2023-12-20T11:45:35;101226.50;;;7.52;100.00
3444;BME280;1736;52.068;6.968;2023-12-20T11:48:04;101220.84;;;7.72;100.00
3444;BME280;1736;52.068;6.968;2023-12-20T11:50:32;101203.84;;;7.76;100.00
3444;BME280;1736;52.068;6.968;2023-12-20T11:52:59;101198.16;;;7.82;100.00
3444;BME280;1736;52.068;6.968;2023-12-20T11:55:25;101191.72;;;7.86;100.00
3444;BME280;1736;52.068;6.968;2023-12-20T11:57:52;101155.44;;;7.76;100.00
3444;BME280;1736;52.068;6.968;2023-12-20T12:00:19;101148.03;;;7.81;100.00
3444;BME280;1736;52.068;6.968;2023-12-20T12:02:55;101140.63;;;7.73;100.00
3444;BME280;1736;52.068;6.968;2023-12-20T12:05:24;101132.16;;;7.68;100.00
3444;BME280;1736;52.068;6.968;2023-12-20T12:07:51;101119.69;;;7.70;100.00
3444;BME280;1736;52.068;6.968;2023-12-20T12:10:17;101119.13;;;7.65;100.00
3444;BME280;1736;52.068;6.968;2023-12-20T12:12:44;101112.72;;;7.69;100.00
3444;BME280;1736;52.068;6.968;2023-12-20T12:15:10;101113.66;;;7.68;100.00
3444;BME280;1736;52.068;6.968;2023-12-20T12:17:37;101106.00;;;7.78;100.00
3444;BME280;1736;52.068;6.968;2023-12-20T12:20:05;101109.28;;;7.81;100.00
3444;BME280;1736;52.068;6.968;2023-12-20T12:22:34;101112.06;;;7.92;100.00
3444;BME280;1736;52.068;6.968;2023-12-20T12:25:09;101100.97;;;8.00;100.00
3444;BME280;1736;52.068;6.968;2023-12-20T12:27:37;101093.59;;;8.05;100.00
3444;BME280;1736;52.068;6.968;2023-12-20T12:30:05;101089.28;;;8.16;100.00
3444;BME280;1736;52.068;6.968;2023-12-20T12:32:33;101058.41;;;8.17;100.00
3444;BME280;1736;52.068;6.968;2023-12-20T12:35:00;101061.97;;;8.30;100.00
3444;BME280;1736;52.068;6.968;2023-12-20T12:37:26;101055.78;;;8.42;100.00
3444;BME280;1736;52.068;6.968;2023-12-20T12:39:54;101061.31;;;8.51;100.00
3444;BME280;1736;52.068;6.968;2023-12-20T12:42:21;101047.75;;;8.43;100.00
3444;BME280;1736;52.068;6.968;2023-12-20T12:44:51;101051.59;;;8.52;100.00
3444;BME280;1736;52.068;6.968;2023-12-20T12:47:17;101019.53;;;8.56;100.00
3444;BME280;1736;52.068;6.968;2023-12-20T12:49:44;101020.91;;;8.49;100.00
3444;BME280;1736;52.068;6.968;2023-12-20T12:52:10;101027.38;;;8.45;100.00
3444;BME280;1736;52.068;6.968;2023-12-20T12:54:37;101011.91;;;8.39;100.00
3444;BME280;1736;52.068;6.968;2023-12-20T12:57:05;101010.09;;;8.27;100.00
3444;BME280;1736;52.068;6.968;2023-12-20T12:59:32;101004.94;;;8.26;100.00
3444;BME280;1736;52.068;6.968;2023-12-20T13:01:58;101017.69;;;8.19;100.00
3444;BME280;1736;52.068;6.968;2023-12-20T13:04:25;101015.03;;;8.19;100.00
3444;BME280;1736;52.068;6.968;2023-12-20T13:06:51;101016.00;;;8.18;100.00
3444;BME280;1736;52.068;6.968;2023-12-20T13:09:18;101013.88;;;8.11;100.00
3444;BME280;1736;52.068;6.968;2023-12-20T13:11:45;101007.75;;;8.10;100.00
3444;BME280;1736;52.068;6.968;2023-12-20T13:14:13;101012.59;;;8.04;100.00